sensor_id;sensor_type;location;lat;lon;timestamp;P1;durP1;ratioP1;P2;durP2;ratioP2
77117;SDS011;66072;50.238;19.228;2023-03-24T00:00:31;10.10;;;5.20;;
77117;SDS011;66072;50.238;19.228;2023-03-24T00:03:18;12.50;;;7.10;;
77117;SDS011;66072;50.238;19.228;2023-03-24T00:05:52;9.00;;;6.40;;
77117;SDS011;66072;50.238;19.228;2023-03-24T00:08:21;10.60;;;7.30;;
77117;SDS011;66072;50.238;19.228;2023-03-24T00:10:49;10.70;;;5.60;;
77117;SDS011;66072;50.238;19.228;2023-03-24T00:13:16;9.70;;;6.40;;
77117;SDS011;66072;50.238;19.228;2023-03-24T00:15:44;9.60;;;6.20;;
77117;SDS011;66072;50.238;19.228;2023-03-24T00:18:12;11.50;;;7.50;;
77117;SDS011;66072;50.238;19.228;2023-03-24T00:20:39;10.80;;;7.10;;
77117;SDS011;66072;50.238;19.228;2023-03-24T00:23:07;14.30;;;8.10;;
77117;SDS011;66072;50.238;19.228;2023-03-24T00:25:34;14.90;;;8.30;;
77117;SDS011;66072;50.238;19.228;2023-03-24T00:28:03;11.70;;;7.10;;
77117;SDS011;66072;50.238;19.228;2023-03-24T00:30:30;13.30;;;7.80;;
77117;SDS011;66072;50.238;19.228;2023-03-24T00:32:59;14.30;;;7.90;;
77117;SDS011;66072;50.238;19.228;2023-03-24T00:35:28;13.00;;;8.20;;
77117;SDS011;66072;50.238;19.228;2023-03-24T00:37:55;12.20;;;8.10;;
77117;SDS011;66072;50.238;19.228;2023-03-24T00:40:23;15.00;;;9.50;;
77117;SDS011;66072;50.238;19.228;2023-03-24T00:42:51;15.50;;;8.30;;
77117;SDS011;66072;50.238;19.228;2023-03-24T00:45:19;11.00;;;6.70;;
77117;SDS011;66072;50.238;19.228;2023-03-24T00:47:48;10.00;;;6.90;;
77117;SDS011;66072;50.238;19.228;2023-03-24T00:50:17;11.50;;;7.10;;
77117;SDS011;66072;50.238;19.228;2023-03-24T00:52:46;10.70;;;6.60;;
77117;SDS011;66072;50.238;19.228;2023-03-24T00:55:14;9.90;;;6.30;;
77117;SDS011;66072;50.238;19.228;2023-03-24T00:57:44;12.50;;;6.80;;
77117;SDS011;66072;50.238;19.228;2023-03-24T01:00:13;12.30;;;7.50;;
77117;SDS011;66072;50.238;19.228;2023-03-24T01:02:41;11.70;;;6.50;;
77117;SDS011;66072;50.238;19.228;2023-03-24T01:05:08;11.70;;;7.00;;
77117;SDS011;66072;50.238;19.228;2023-03-24T01:07:36;10.90;;;6.50;;
77117;SDS011;66072;50.238;19.228;2023-03-24T01:10:04;11.50;;;5.70;;
77117;SDS011;66072;50.238;19.228;2023-03-24T01:12:33;10.80;;;6.20;;
77117;SDS011;66072;50.238;19.228;2023-03-24T01:15:03;10.40;;;6.90;;
77117;SDS011;66072;50.238;19.228;2023-03-24T01:17:33;7.10;;;4.80;;
77117;SDS011;66072;50.238;19.228;2023-03-24T01:20:01;8.30;;;5.30;;
77117;SDS011;66072;50.238;19.228;2023-03-24T01:22:29;8.30;;;5.30;;
77117;SDS011;66072;50.238;19.228;2023-03-24T01:24:57;9.30;;;5.00;;
77117;SDS011;66072;50.238;19.228;2023-03-24T01:27:24;8.20;;;5.20;;
77117;SDS011;66072;50.238;19.228;2023-03-24T01:29:56;8.00;;;5.40;;
77117;SDS011;66072;50.238;19.228;2023-03-24T01:32:26;15.40;;;6.60;;
77117;SDS011;66072;50.238;19.228;2023-03-24T01:34:56;8.50;;;5.50;;
77117;SDS011;66072;50.238;19.228;2023-03-24T01:37:24;8.30;;;5.60;;
77117;SDS011;66072;50.238;19.228;2023-03-24T01:39:52;11.20;;;6.30;;
77117;SDS011;66072;50.238;19.228;2023-03-24T01:42:21;8.60;;;6.10;;
77117;SDS011;66072;50.238;19.228;2023-03-24T01:44:53;10.90;;;6.60;;
77117;SDS011;66072;50.238;19.228;2023-03-24T01:47:24;10.70;;;6.50;;
77117;SDS011;66072;50.238;19.228;2023-03-24T01:49:52;10.30;;;6.40;;
77117;SDS011;66072;50.238;19.228;2023-03-24T01:52:24;10.60;;;6.20;;
77117;SDS011;66072;50.238;19.228;2023-03-24T01:54:58;11.90;;;7.80;;
77117;SDS011;66072;50.238;19.228;2023-03-24T01:57:32;13.20;;;7.50;;
77117;SDS011;66072;50.238;19.228;2023-03-24T02:00:07;11.90;;;7.30;;
77117;SDS011;66072;50.238;19.228;2023-03-24T02:02:39;12.90;;;8.00;;
77117;SDS011;66072;50.238;19.228;2023-03-24T02:05:09;11.80;;;7.90;;
77117;SDS011;66072;50.238;19.228;2023-03-24T02:07:49;12.50;;;7.60;;
77117;SDS011;66072;50.238;19.228;2023-03-24T02:10:22;10.60;;;5.80;;
77117;SDS011;66072;50.238;19.228;2023-03-24T02:12:51;11.40;;;7.90;;
77117;SDS011;66072;50.238;19.228;2023-03-24T02:15:18;12.00;;;6.70;;
77117;SDS011;66072;50.238;19.228;2023-03-24T02:29:30;12.20;;;8.70;;
77117;SDS011;66072;50.238;19.228;2023-03-24T02:46:35;14.10;;;8.20;;
77117;SDS011;66072;50.238;19.228;2023-03-24T02:49:32;12.60;;;7.90;;
77117;SDS011;66072;50.238;19.228;2023-03-24T02:52:37;12.50;;;7.40;;
77117;SDS011;66072;50.238;19.228;2023-03-24T02:57:54;13.80;;;8.20;;
77117;SDS011;66072;50.238;19.228;2023-03-24T03:05:58;11.50;;;6.80;;
77117;SDS011;66072;50.238;19.228;2023-03-24T03:08:32;11.60;;;7.00;;
77117;SDS011;66072;50.238;19.228;2023-03-24T03:11:01;9.70;;;5.80;;
77117;SDS011;66072;50.238;19.228;2023-03-24T03:13:34;7.20;;;5.30;;
77117;SDS011;66072;50.238;19.228;2023-03-24T03:19:27;10.60;;;7.70;;
77117;SDS011;66072;50.238;19.228;2023-03-24T03:21:59;10.30;;;6.00;;
77117;SDS011;66072;50.238;19.228;2023-03-24T03:24:31;9.50;;;6.20;;
77117;SDS011;66072;50.238;19.228;2023-03-24T03:27:16;10.80;;;7.80;;
77117;SDS011;66072;50.238;19.228;2023-03-24T03:29:49;10.80;;;7.30;;
77117;SDS011;66072;50.238;19.228;2023-03-24T03:32:21;12.90;;;8.10;;
77117;SDS011;66072;50.238;19.228;2023-03-24T03:35:00;9.90;;;7.20;;
77117;SDS011;66072;50.238;19.228;2023-03-24T03:40:23;12.70;;;9.20;;
77117;SDS011;66072;50.238;19.228;2023-03-24T03:43:03;14.00;;;8.70;;
77117;SDS011;66072;50.238;19.228;2023-03-24T03:45:32;14.60;;;9.40;;
77117;SDS011;66072;50.238;19.228;2023-03-24T03:48:01;13.80;;;9.20;;
77117;SDS011;66072;50.238;19.228;2023-03-24T03:50:28;11.70;;;8.90;;
77117;SDS011;66072;50.238;19.228;2023-03-24T03:52:56;17.50;;;11.70;;
77117;SDS011;66072;50.238;19.228;2023-03-24T03:55:24;15.30;;;11.30;;
77117;SDS011;66072;50.238;19.228;2023-03-24T03:57:52;15.80;;;10.60;;
77117;SDS011;66072;50.238;19.228;2023-03-24T04:00:20;11.60;;;7.90;;
77117;SDS011;66072;50.238;19.228;2023-03-24T04:08:49;10.30;;;7.50;;
77117;SDS011;66072;50.238;19.228;2023-03-24T04:19:06;13.70;;;8.40;;
77117;SDS011;66072;50.238;19.228;2023-03-24T04:21:46;11.80;;;8.60;;
77117;SDS011;66072;50.238;19.228;2023-03-24T04:24:31;13.10;;;9.10;;
77117;SDS011;66072;50.238;19.228;2023-03-24T04:27:37;15.20;;;10.50;;
77117;SDS011;66072;50.238;19.228;2023-03-24T04:35:20;18.00;;;12.70;;
77117;SDS011;66072;50.238;19.228;2023-03-24T04:37:52;21.70;;;13.70;;
77117;SDS011;66072;50.238;19.228;2023-03-24T04:40:21;20.60;;;16.30;;
77117;SDS011;66072;50.238;19.228;2023-03-24T04:42:51;21.00;;;15.30;;
77117;SDS011;66072;50.238;19.228;2023-03-24T04:45:20;18.90;;;14.10;;
77117;SDS011;66072;50.238;19.228;2023-03-24T04:47:50;21.10;;;16.30;;
77117;SDS011;66072;50.238;19.228;2023-03-24T04:50:40;25.10;;;17.20;;
77117;SDS011;66072;50.238;19.228;2023-03-24T04:53:09;24.20;;;14.60;;
77117;SDS011;66072;50.238;19.228;2023-03-24T04:58:17;18.60;;;12.60;;
77117;SDS011;66072;50.238;19.228;2023-03-24T05:00:45;18.50;;;12.80;;
77117;SDS011;66072;50.238;19.228;2023-03-24T05:03:13;17.30;;;12.20;;
77117;SDS011;66072;50.238;19.228;2023-03-24T05:05:43;18.10;;;12.20;;
77117;SDS011;66072;50.238;19.228;2023-03-24T05:08:13;15.60;;;10.90;;
77117;SDS011;66072;50.238;19.228;2023-03-24T05:10:41;18.70;;;12.50;;
77117;SDS011;66072;50.238;19.228;2023-03-24T05:13:09;18.60;;;12.10;;
77117;SDS011;66072;50.238;19.228;2023-03-24T05:15:38;18.20;;;12.30;;
77117;SDS011;66072;50.238;19.228;2023-03-24T05:18:06;19.30;;;13.50;;
77117;SDS011;66072;50.238;19.228;2023-03-24T05:20:34;18.80;;;13.10;;
77117;SDS011;66072;50.238;19.228;2023-03-24T05:23:01;17.70;;;12.20;;
77117;SDS011;66072;50.238;19.228;2023-03-24T05:25:29;17.70;;;10.50;;
77117;SDS011;66072;50.238;19.228;2023-03-24T05:27:56;16.90;;;11.70;;
77117;SDS011;66072;50.238;19.228;2023-03-24T05:30:24;17.60;;;12.60;;
77117;SDS011;66072;50.238;19.228;2023-03-24T05:32:52;17.10;;;11.30;;
77117;SDS011;66072;50.238;19.228;2023-03-24T05:35:20;17.70;;;11.90;;
77117;SDS011;66072;50.238;19.228;2023-03-24T05:37:47;17.60;;;11.90;;
77117;SDS011;66072;50.238;19.228;2023-03-24T05:40:15;18.80;;;12.30;;
77117;SDS011;66072;50.238;19.228;2023-03-24T05:42:43;18.90;;;12.40;;
77117;SDS011;66072;50.238;19.228;2023-03-24T05:45:10;19.10;;;11.70;;
77117;SDS011;66072;50.238;19.228;2023-03-24T05:47:38;19.20;;;13.70;;
77117;SDS011;66072;50.238;19.228;2023-03-24T05:50:06;15.80;;;11.60;;
77117;SDS011;66072;50.238;19.228;2023-03-24T05:52:34;19.80;;;14.20;;
77117;SDS011;66072;50.238;19.228;2023-03-24T05:55:02;18.50;;;13.40;;
77117;SDS011;66072;50.238;19.228;2023-03-24T05:57:30;19.60;;;13.00;;
77117;SDS011;66072;50.238;19.228;2023-03-24T05:59:57;18.20;;;13.10;;
77117;SDS011;66072;50.238;19.228;2023-03-24T06:02:25;19.10;;;14.10;;
77117;SDS011;66072;50.238;19.228;2023-03-24T06:04:53;22.50;;;15.10;;
77117;SDS011;66072;50.238;19.228;2023-03-24T06:07:20;23.40;;;14.10;;
77117;SDS011;66072;50.238;19.228;2023-03-24T06:09:48;24.10;;;16.30;;
77117;SDS011;66072;50.238;19.228;2023-03-24T06:12:16;25.20;;;14.10;;
77117;SDS011;66072;50.238;19.228;2023-03-24T06:14:43;20.40;;;13.80;;
77117;SDS011;66072;50.238;19.228;2023-03-24T06:17:11;20.40;;;14.30;;
77117;SDS011;66072;50.238;19.228;2023-03-24T06:19:39;19.90;;;13.70;;
77117;SDS011;66072;50.238;19.228;2023-03-24T06:22:09;19.80;;;13.80;;
77117;SDS011;66072;50.238;19.228;2023-03-24T06:24:37;22.50;;;14.40;;
77117;SDS011;66072;50.238;19.228;2023-03-24T06:27:05;19.50;;;12.70;;
77117;SDS011;66072;50.238;19.228;2023-03-24T06:29:32;22.10;;;14.80;;
77117;SDS011;66072;50.238;19.228;2023-03-24T06:32:00;17.70;;;12.10;;
77117;SDS011;66072;50.238;19.228;2023-03-24T06:34:27;17.40;;;12.50;;
77117;SDS011;66072;50.238;19.228;2023-03-24T06:36:55;20.40;;;13.90;;
77117;SDS011;66072;50.238;19.228;2023-03-24T06:39:23;18.50;;;12.90;;
77117;SDS011;66072;50.238;19.228;2023-03-24T06:41:50;19.50;;;14.30;;
77117;SDS011;66072;50.238;19.228;2023-03-24T06:44:18;18.80;;;13.50;;
77117;SDS011;66072;50.238;19.228;2023-03-24T06:46:46;20.90;;;13.60;;
77117;SDS011;66072;50.238;19.228;2023-03-24T06:49:13;16.10;;;12.40;;
77117;SDS011;66072;50.238;19.228;2023-03-24T06:51:41;17.90;;;12.70;;
77117;SDS011;66072;50.238;19.228;2023-03-24T06:54:09;15.60;;;11.10;;
77117;SDS011;66072;50.238;19.228;2023-03-24T06:56:36;18.30;;;11.90;;
77117;SDS011;66072;50.238;19.228;2023-03-24T06:59:04;16.80;;;12.70;;
77117;SDS011;66072;50.238;19.228;2023-03-24T07:01:32;19.30;;;12.70;;
77117;SDS011;66072;50.238;19.228;2023-03-24T07:03:59;16.40;;;12.80;;
77117;SDS011;66072;50.238;19.228;2023-03-24T07:06:27;17.40;;;13.00;;
77117;SDS011;66072;50.238;19.228;2023-03-24T07:08:55;15.50;;;11.80;;
77117;SDS011;66072;50.238;19.228;2023-03-24T07:11:23;15.30;;;11.30;;
77117;SDS011;66072;50.238;19.228;2023-03-24T07:13:51;17.50;;;12.50;;
77117;SDS011;66072;50.238;19.228;2023-03-24T07:16:19;17.60;;;13.60;;
77117;SDS011;66072;50.238;19.228;2023-03-24T07:18:47;25.00;;;18.50;;
77117;SDS011;66072;50.238;19.228;2023-03-24T07:21:14;32.00;;;21.20;;
77117;SDS011;66072;50.238;19.228;2023-03-24T07:23:42;28.50;;;20.80;;
77117;SDS011;66072;50.238;19.228;2023-03-24T07:26:10;26.10;;;20.10;;
77117;SDS011;66072;50.238;19.228;2023-03-24T07:28:37;23.90;;;18.20;;
77117;SDS011;66072;50.238;19.228;2023-03-24T07:31:05;24.20;;;16.60;;
77117;SDS011;66072;50.238;19.228;2023-03-24T07:33:33;20.80;;;14.70;;
77117;SDS011;66072;50.238;19.228;2023-03-24T07:36:00;23.20;;;16.60;;
77117;SDS011;66072;50.238;19.228;2023-03-24T07:38:28;21.50;;;16.40;;
77117;SDS011;66072;50.238;19.228;2023-03-24T07:40:59;16.90;;;13.20;;
77117;SDS011;66072;50.238;19.228;2023-03-24T07:43:26;18.40;;;13.70;;
77117;SDS011;66072;50.238;19.228;2023-03-24T07:45:54;21.30;;;14.50;;
77117;SDS011;66072;50.238;19.228;2023-03-24T07:48:22;16.90;;;13.20;;
77117;SDS011;66072;50.238;19.228;2023-03-24T07:50:51;18.80;;;13.30;;
77117;SDS011;66072;50.238;19.228;2023-03-24T07:53:19;20.90;;;14.30;;
77117;SDS011;66072;50.238;19.228;2023-03-24T07:55:46;18.60;;;14.00;;
77117;SDS011;66072;50.238;19.228;2023-03-24T07:58:15;21.00;;;15.40;;
77117;SDS011;66072;50.238;19.228;2023-03-24T08:00:43;19.20;;;13.40;;
77117;SDS011;66072;50.238;19.228;2023-03-24T08:03:11;19.20;;;13.60;;
77117;SDS011;66072;50.238;19.228;2023-03-24T08:05:40;19.60;;;14.40;;
77117;SDS011;66072;50.238;19.228;2023-03-24T08:08:08;17.90;;;12.90;;
77117;SDS011;66072;50.238;19.228;2023-03-24T08:10:36;17.20;;;12.10;;
77117;SDS011;66072;50.238;19.228;2023-03-24T08:13:03;14.20;;;10.40;;
77117;SDS011;66072;50.238;19.228;2023-03-24T08:15:31;12.30;;;9.20;;
77117;SDS011;66072;50.238;19.228;2023-03-24T08:17:59;17.80;;;11.60;;
77117;SDS011;66072;50.238;19.228;2023-03-24T08:20:26;15.80;;;11.10;;
77117;SDS011;66072;50.238;19.228;2023-03-24T08:22:54;15.00;;;10.90;;
77117;SDS011;66072;50.238;19.228;2023-03-24T08:25:23;11.00;;;8.90;;
77117;SDS011;66072;50.238;19.228;2023-03-24T08:27:52;14.20;;;10.00;;
77117;SDS011;66072;50.238;19.228;2023-03-24T08:30:24;13.40;;;10.10;;
77117;SDS011;66072;50.238;19.228;2023-03-24T08:32:54;13.00;;;8.90;;
77117;SDS011;66072;50.238;19.228;2023-03-24T08:35:26;13.00;;;9.80;;
77117;SDS011;66072;50.238;19.228;2023-03-24T08:37:56;13.30;;;9.20;;
77117;SDS011;66072;50.238;19.228;2023-03-24T08:40:24;10.30;;;7.70;;
77117;SDS011;66072;50.238;19.228;2023-03-24T08:42:54;10.00;;;7.80;;
77117;SDS011;66072;50.238;19.228;2023-03-24T08:45:24;8.80;;;7.00;;
77117;SDS011;66072;50.238;19.228;2023-03-24T08:47:54;9.70;;;7.00;;
77117;SDS011;66072;50.238;19.228;2023-03-24T08:50:25;10.50;;;7.20;;
77117;SDS011;66072;50.238;19.228;2023-03-24T08:52:55;10.20;;;6.50;;
77117;SDS011;66072;50.238;19.228;2023-03-24T08:55:23;9.70;;;6.20;;
77117;SDS011;66072;50.238;19.228;2023-03-24T08:57:51;6.90;;;5.20;;
77117;SDS011;66072;50.238;19.228;2023-03-24T09:00:19;8.80;;;5.20;;
77117;SDS011;66072;50.238;19.228;2023-03-24T09:02:48;8.80;;;6.10;;
77117;SDS011;66072;50.238;19.228;2023-03-24T09:05:18;7.60;;;5.20;;
77117;SDS011;66072;50.238;19.228;2023-03-24T09:08:03;11.00;;;6.10;;
77117;SDS011;66072;50.238;19.228;2023-03-24T09:10:31;7.90;;;4.60;;
77117;SDS011;66072;50.238;19.228;2023-03-24T09:12:58;6.20;;;4.10;;
77117;SDS011;66072;50.238;19.228;2023-03-24T09:15:26;7.70;;;4.80;;
77117;SDS011;66072;50.238;19.228;2023-03-24T09:17:54;5.90;;;3.80;;
77117;SDS011;66072;50.238;19.228;2023-03-24T09:20:22;5.50;;;3.80;;
77117;SDS011;66072;50.238;19.228;2023-03-24T09:22:49;6.40;;;4.60;;
77117;SDS011;66072;50.238;19.228;2023-03-24T09:25:18;7.60;;;6.20;;
77117;SDS011;66072;50.238;19.228;2023-03-24T09:27:47;11.60;;;7.00;;
77117;SDS011;66072;50.238;19.228;2023-03-24T09:30:16;9.10;;;6.20;;
77117;SDS011;66072;50.238;19.228;2023-03-24T09:32:44;8.70;;;4.70;;
77117;SDS011;66072;50.238;19.228;2023-03-24T09:35:12;8.30;;;5.80;;
77117;SDS011;66072;50.238;19.228;2023-03-24T09:37:41;6.20;;;4.60;;
77117;SDS011;66072;50.238;19.228;2023-03-24T09:40:28;5.70;;;4.10;;
77117;SDS011;66072;50.238;19.228;2023-03-24T09:43:03;9.00;;;6.20;;
77117;SDS011;66072;50.238;19.228;2023-03-24T09:45:42;7.60;;;5.70;;
77117;SDS011;66072;50.238;19.228;2023-03-24T09:48:17;6.10;;;4.30;;
77117;SDS011;66072;50.238;19.228;2023-03-24T09:51:05;7.20;;;4.60;;
77117;SDS011;66072;50.238;19.228;2023-03-24T09:56:36;7.50;;;5.00;;
77117;SDS011;66072;50.238;19.228;2023-03-24T09:59:16;8.30;;;6.20;;
77117;SDS011;66072;50.238;19.228;2023-03-24T10:01:44;7.70;;;5.50;;
77117;SDS011;66072;50.238;19.228;2023-03-24T10:04:17;7.30;;;6.20;;
77117;SDS011;66072;50.238;19.228;2023-03-24T10:06:47;10.80;;;6.80;;
77117;SDS011;66072;50.238;19.228;2023-03-24T10:09:28;8.70;;;5.80;;
77117;SDS011;66072;50.238;19.228;2023-03-24T10:17:04;8.60;;;5.80;;
77117;SDS011;66072;50.238;19.228;2023-03-24T10:22:30;8.30;;;6.30;;
77117;SDS011;66072;50.238;19.228;2023-03-24T10:28:13;7.70;;;5.60;;
77117;SDS011;66072;50.238;19.228;2023-03-24T10:30:46;6.80;;;5.30;;
77117;SDS011;66072;50.238;19.228;2023-03-24T10:33:16;7.20;;;5.00;;
77117;SDS011;66072;50.238;19.228;2023-03-24T10:35:46;7.70;;;5.40;;
77117;SDS011;66072;50.238;19.228;2023-03-24T10:38:22;7.10;;;4.40;;
77117;SDS011;66072;50.238;19.228;2023-03-24T10:40:50;6.30;;;4.90;;
77117;SDS011;66072;50.238;19.228;2023-03-24T10:43:20;6.20;;;4.10;;
77117;SDS011;66072;50.238;19.228;2023-03-24T10:45:53;5.70;;;4.10;;
77117;SDS011;66072;50.238;19.228;2023-03-24T10:49:25;6.70;;;4.60;;
77117;SDS011;66072;50.238;19.228;2023-03-24T10:51:35;6.30;;;4.50;;
77117;SDS011;66072;50.238;19.228;2023-03-24T10:54:22;6.50;;;5.00;;
77117;SDS011;66072;50.238;19.228;2023-03-24T10:57:02;5.20;;;4.40;;
77117;SDS011;66072;50.238;19.228;2023-03-24T10:59:37;6.10;;;4.70;;
77117;SDS011;66072;50.238;19.228;2023-03-24T11:02:24;6.60;;;4.60;;
77117;SDS011;66072;50.238;19.228;2023-03-24T11:05:01;7.00;;;4.80;;
77117;SDS011;66072;50.238;19.228;2023-03-24T11:07:41;6.50;;;4.80;;
77117;SDS011;66072;50.238;19.228;2023-03-24T11:12:41;5.50;;;3.90;;
77117;SDS011;66072;50.238;19.228;2023-03-24T11:15:20;6.00;;;4.70;;
77117;SDS011;66072;50.238;19.228;2023-03-24T11:17:54;7.10;;;4.90;;
77117;SDS011;66072;50.238;19.228;2023-03-24T11:20:25;6.90;;;4.00;;
77117;SDS011;66072;50.238;19.228;2023-03-24T11:26:10;5.00;;;3.70;;
77117;SDS011;66072;50.238;19.228;2023-03-24T11:28:43;6.30;;;4.80;;
77117;SDS011;66072;50.238;19.228;2023-03-24T11:31:19;5.80;;;4.50;;
77117;SDS011;66072;50.238;19.228;2023-03-24T11:36:42;6.20;;;4.50;;
77117;SDS011;66072;50.238;19.228;2023-03-24T11:39:18;6.90;;;5.10;;
77117;SDS011;66072;50.238;19.228;2023-03-24T11:42:13;6.50;;;4.70;;
77117;SDS011;66072;50.238;19.228;2023-03-24T11:52:54;5.40;;;3.90;;
77117;SDS011;66072;50.238;19.228;2023-03-24T11:55:34;6.90;;;5.30;;
77117;SDS011;66072;50.238;19.228;2023-03-24T12:00:51;6.50;;;4.40;;
77117;SDS011;66072;50.238;19.228;2023-03-24T12:03:47;6.60;;;4.60;;
77117;SDS011;66072;50.238;19.228;2023-03-24T12:15:18;7.90;;;4.50;;
77117;SDS011;66072;50.238;19.228;2023-03-24T12:18:08;5.90;;;4.30;;
77117;SDS011;66072;50.238;19.228;2023-03-24T12:20:58;6.60;;;3.90;;
77117;SDS011;66072;50.238;19.228;2023-03-24T12:23:33;6.90;;;4.00;;
77117;SDS011;66072;50.238;19.228;2023-03-24T12:34:43;8.50;;;5.40;;
77117;SDS011;66072;50.238;19.228;2023-03-24T12:45:51;6.20;;;4.10;;
77117;SDS011;66072;50.238;19.228;2023-03-24T12:48:33;6.40;;;4.70;;
77117;SDS011;66072;50.238;19.228;2023-03-24T12:56:54;9.10;;;5.60;;
77117;SDS011;66072;50.238;19.228;2023-03-24T12:59:40;7.00;;;4.90;;
77117;SDS011;66072;50.238;19.228;2023-03-24T13:02:30;9.80;;;5.90;;
77117;SDS011;66072;50.238;19.228;2023-03-24T13:05:06;9.20;;;5.40;;
77117;SDS011;66072;50.238;19.228;2023-03-24T13:07:42;6.30;;;4.90;;
77117;SDS011;66072;50.238;19.228;2023-03-24T13:10:15;6.60;;;4.50;;
77117;SDS011;66072;50.238;19.228;2023-03-24T13:15:40;8.20;;;5.50;;
77117;SDS011;66072;50.238;19.228;2023-03-24T13:21:08;6.50;;;4.30;;
77117;SDS011;66072;50.238;19.228;2023-03-24T13:26:47;7.70;;;5.30;;
77117;SDS011;66072;50.238;19.228;2023-03-24T13:34:59;7.90;;;5.20;;
77117;SDS011;66072;50.238;19.228;2023-03-24T13:37:40;6.20;;;5.00;;
77117;SDS011;66072;50.238;19.228;2023-03-24T13:40:20;7.00;;;5.40;;
77117;SDS011;66072;50.238;19.228;2023-03-24T13:45:30;7.10;;;5.00;;
77117;SDS011;66072;50.238;19.228;2023-03-24T13:50:36;7.40;;;5.50;;
77117;SDS011;66072;50.238;19.228;2023-03-24T13:53:09;7.80;;;5.40;;
77117;SDS011;66072;50.238;19.228;2023-03-24T13:55:48;9.30;;;5.60;;
77117;SDS011;66072;50.238;19.228;2023-03-24T13:58:19;10.30;;;6.00;;
77117;SDS011;66072;50.238;19.228;2023-03-24T14:03:39;8.20;;;5.40;;
77117;SDS011;66072;50.238;19.228;2023-03-24T14:06:08;7.40;;;5.20;;
77117;SDS011;66072;50.238;19.228;2023-03-24T14:08:41;6.80;;;4.50;;
77117;SDS011;66072;50.238;19.228;2023-03-24T14:16:41;10.00;;;6.50;;
77117;SDS011;66072;50.238;19.228;2023-03-24T14:19:17;12.40;;;7.30;;
77117;SDS011;66072;50.238;19.228;2023-03-24T14:24:57;8.00;;;5.60;;
77117;SDS011;66072;50.238;19.228;2023-03-24T14:27:37;9.30;;;5.80;;
77117;SDS011;66072;50.238;19.228;2023-03-24T14:32:46;8.30;;;5.80;;
77117;SDS011;66072;50.238;19.228;2023-03-24T14:35:24;10.70;;;6.40;;
77117;SDS011;66072;50.238;19.228;2023-03-24T14:40:47;6.90;;;4.70;;
77117;SDS011;66072;50.238;19.228;2023-03-24T14:48:34;9.10;;;6.40;;
77117;SDS011;66072;50.238;19.228;2023-03-24T14:53:51;11.00;;;6.00;;
77117;SDS011;66072;50.238;19.228;2023-03-24T14:56:23;10.60;;;6.50;;
77117;SDS011;66072;50.238;19.228;2023-03-24T14:58:56;8.50;;;5.20;;
77117;SDS011;66072;50.238;19.228;2023-03-24T15:01:29;8.00;;;5.90;;
77117;SDS011;66072;50.238;19.228;2023-03-24T15:04:01;9.70;;;5.90;;
77117;SDS011;66072;50.238;19.228;2023-03-24T15:06:32;8.90;;;5.30;;
77117;SDS011;66072;50.238;19.228;2023-03-24T15:09:08;8.70;;;4.80;;
77117;SDS011;66072;50.238;19.228;2023-03-24T15:11:37;12.20;;;6.70;;
77117;SDS011;66072;50.238;19.228;2023-03-24T15:14:22;8.00;;;5.40;;
77117;SDS011;66072;50.238;19.228;2023-03-24T15:17:35;7.20;;;4.70;;
77117;SDS011;66072;50.238;19.228;2023-03-24T15:19:48;8.70;;;4.80;;
77117;SDS011;66072;50.238;19.228;2023-03-24T15:22:18;9.00;;;6.20;;
77117;SDS011;66072;50.238;19.228;2023-03-24T15:24:47;7.50;;;5.80;;
77117;SDS011;66072;50.238;19.228;2023-03-24T15:27:25;11.60;;;7.00;;
77117;SDS011;66072;50.238;19.228;2023-03-24T15:29:54;11.00;;;6.80;;
77117;SDS011;66072;50.238;19.228;2023-03-24T15:32:24;8.70;;;4.90;;
77117;SDS011;66072;50.238;19.228;2023-03-24T15:34:54;11.00;;;6.60;;
77117;SDS011;66072;50.238;19.228;2023-03-24T15:37:29;11.80;;;7.10;;
77117;SDS011;66072;50.238;19.228;2023-03-24T15:40:29;7.60;;;5.20;;
77117;SDS011;66072;50.238;19.228;2023-03-24T15:42:59;7.40;;;5.30;;
77117;SDS011;66072;50.238;19.228;2023-03-24T15:45:33;9.40;;;6.60;;
77117;SDS011;66072;50.238;19.228;2023-03-24T15:48:05;10.60;;;6.80;;
77117;SDS011;66072;50.238;19.228;2023-03-24T15:50:38;10.60;;;7.00;;
77117;SDS011;66072;50.238;19.228;2023-03-24T15:55:41;10.90;;;6.60;;
77117;SDS011;66072;50.238;19.228;2023-03-24T16:00:51;12.50;;;7.70;;
77117;SDS011;66072;50.238;19.228;2023-03-24T16:03:23;10.90;;;7.50;;
77117;SDS011;66072;50.238;19.228;2023-03-24T16:05:52;9.90;;;6.10;;
77117;SDS011;66072;50.238;19.228;2023-03-24T16:08:34;7.40;;;5.00;;
77117;SDS011;66072;50.238;19.228;2023-03-24T16:11:04;8.80;;;5.40;;
77117;SDS011;66072;50.238;19.228;2023-03-24T16:13:33;9.30;;;4.60;;
77117;SDS011;66072;50.238;19.228;2023-03-24T16:18:42;8.00;;;5.40;;
77117;SDS011;66072;50.238;19.228;2023-03-24T16:21:12;8.50;;;5.40;;
77117;SDS011;66072;50.238;19.228;2023-03-24T16:23:41;8.10;;;4.30;;
77117;SDS011;66072;50.238;19.228;2023-03-24T16:26:17;6.40;;;4.60;;
77117;SDS011;66072;50.238;19.228;2023-03-24T16:28:47;5.70;;;4.40;;
77117;SDS011;66072;50.238;19.228;2023-03-24T16:31:23;5.80;;;3.70;;
77117;SDS011;66072;50.238;19.228;2023-03-24T16:33:52;6.30;;;4.10;;
77117;SDS011;66072;50.238;19.228;2023-03-24T16:36:24;7.10;;;4.20;;
77117;SDS011;66072;50.238;19.228;2023-03-24T16:38:53;9.00;;;5.00;;
77117;SDS011;66072;50.238;19.228;2023-03-24T16:41:21;7.80;;;5.10;;
77117;SDS011;66072;50.238;19.228;2023-03-24T16:43:49;7.80;;;4.60;;
77117;SDS011;66072;50.238;19.228;2023-03-24T16:46:19;7.30;;;4.80;;
77117;SDS011;66072;50.238;19.228;2023-03-24T16:49:00;7.60;;;4.80;;
77117;SDS011;66072;50.238;19.228;2023-03-24T16:51:29;8.80;;;5.50;;
77117;SDS011;66072;50.238;19.228;2023-03-24T16:53:56;9.00;;;4.90;;
77117;SDS011;66072;50.238;19.228;2023-03-24T16:56:24;9.10;;;5.20;;
77117;SDS011;66072;50.238;19.228;2023-03-24T16:58:52;9.70;;;6.50;;
77117;SDS011;66072;50.238;19.228;2023-03-24T17:01:33;10.40;;;5.00;;
77117;SDS011;66072;50.238;19.228;2023-03-24T17:04:07;8.80;;;4.80;;
77117;SDS011;66072;50.238;19.228;2023-03-24T17:06:43;8.60;;;5.40;;
77117;SDS011;66072;50.238;19.228;2023-03-24T17:09:13;8.40;;;5.50;;
77117;SDS011;66072;50.238;19.228;2023-03-24T17:11:46;6.60;;;4.80;;
77117;SDS011;66072;50.238;19.228;2023-03-24T17:14:17;7.50;;;5.00;;
77117;SDS011;66072;50.238;19.228;2023-03-24T17:16:45;9.00;;;5.50;;
77117;SDS011;66072;50.238;19.228;2023-03-24T17:19:15;10.50;;;6.20;;
77117;SDS011;66072;50.238;19.228;2023-03-24T17:21:46;9.60;;;6.30;;
77117;SDS011;66072;50.238;19.228;2023-03-24T17:24:17;11.00;;;7.00;;
77117;SDS011;66072;50.238;19.228;2023-03-24T17:26:46;10.30;;;6.30;;
77117;SDS011;66072;50.238;19.228;2023-03-24T17:29:13;12.70;;;8.10;;
77117;SDS011;66072;50.238;19.228;2023-03-24T17:31:41;12.50;;;8.10;;
77117;SDS011;66072;50.238;19.228;2023-03-24T17:34:13;10.60;;;7.00;;
77117;SDS011;66072;50.238;19.228;2023-03-24T17:36:44;12.00;;;9.20;;
77117;SDS011;66072;50.238;19.228;2023-03-24T17:39:15;12.50;;;8.80;;
77117;SDS011;66072;50.238;19.228;2023-03-24T17:41:44;13.20;;;8.10;;
77117;SDS011;66072;50.238;19.228;2023-03-24T17:44:12;13.60;;;8.90;;
77117;SDS011;66072;50.238;19.228;2023-03-24T17:46:39;11.10;;;7.60;;
77117;SDS011;66072;50.238;19.228;2023-03-24T17:49:07;11.20;;;7.10;;